Time;durP1;ratioP1;P1;durP2;ratioP2;P2;SDS_P1;SDS_P2;PMS_P1;PMS_P2;Temp;Humidity;BMP_temperature;BMP_pressure;BME280_temperature;BME280_humidity;BME280_pressure;Samples;Min_cycle;Max_cycle;Signal;HPM_P1;HPM_P2
2021/01/16 00:00:37;;;;;;;;;;;18.50;35.30;;;;;;491632;240;1212;-53
2021/01/16 00:02:38;;;;;;;;;;;18.50;35.30;;;;;;491682;240;1064;-54
2021/01/16 00:04:40;;;;;;;;;;;18.60;35.30;;;;;;491636;240;1081;-54
2021/01/16 00:06:41;;;;;;;;;;;18.60;35.30;;;;;;491559;240;1229;-54
2021/01/16 00:08:42;;;;;;;;;;;18.60;35.20;;;;;;491768;240;2149;-54
2021/01/16 00:10:43;;;;;;;;;;;18.60;35.20;;;;;;491697;240;1032;-54
2021/01/16 00:12:45;;;;;;;;;;;18.70;35.20;;;;;;491745;240;987;-54
2021/01/16 00:14:46;;;;;;;;;;;18.70;35.20;;;;;;491696;240;1057;-54
2021/01/16 00:16:47;;;;;;;;;;;18.70;35.10;;;;;;491637;240;958;-53
2021/01/16 00:18:48;;;;;;;;;;;18.70;35.10;;;;;;491625;240;994;-54
2021/01/16 00:20:50;;;;;;;;;;;18.80;35.10;;;;;;491625;240;1025;-53
2021/01/16 00:22:51;;;;;;;;;;;18.80;35.10;;;;;;491650;240;1177;-54
2021/01/16 00:24:52;;;;;;;;;;;18.80;35.00;;;;;;491767;240;1021;-53
2021/01/16 00:26:54;;;;;;;;;;;18.80;35.00;;;;;;491681;240;1119;-54
2021/01/16 00:28:55;;;;;;;;;;;18.80;35.00;;;;;;491690;240;2129;-54
2021/01/16 00:30:56;;;;;;;;;;;18.90;33.70;;;;;;491622;240;1057;-54
2021/01/16 00:32:57;;;;;;;;;;;18.90;35.00;;;;;;491900;240;1075;-54
2021/01/16 00:34:59;;;;;;;;;;;18.90;34.90;;;;;;491685;240;931;-53
2021/01/16 00:37:00;;;;;;;;;;;18.90;34.90;;;;;;491920;240;1168;-54
2021/01/16 00:39:01;;;;;;;;;;;18.90;34.90;;;;;;491630;240;1094;-54
2021/01/16 00:41:02;;;;;;;;;;;19.00;34.80;;;;;;491733;240;1119;-54
2021/01/16 00:43:04;;;;;;;;;;;19.00;34.80;;;;;;491627;240;1260;-53
2021/01/16 00:45:05;;;;;;;;;;;19.00;34.80;;;;;;491824;240;1055;-54
2021/01/16 00:47:06;;;;;;;;;;;19.00;34.80;;;;;;491581;240;999;-54
2021/01/16 00:49:08;;;;;;;;;;;19.00;34.80;;;;;;491549;240;2184;-54
2021/01/16 00:51:09;;;;;;;;;;;19.10;34.80;;;;;;491614;240;1076;-53
2021/01/16 00:53:10;;;;;;;;;;;19.10;34.70;;;;;;491738;240;2213;-53
2021/01/16 00:55:11;;;;;;;;;;;19.10;34.70;;;;;;491615;240;1008;-54
2021/01/16 00:57:13;;;;;;;;;;;19.10;34.70;;;;;;491638;240;1053;-54
2021/01/16 00:59:14;;;;;;;;;;;19.10;34.70;;;;;;491654;240;1042;-54
2021/01/16 01:01:15;;;;;;;;;;;19.10;34.60;;;;;;491665;240;1083;-53
2021/01/16 01:03:16;;;;;;;;;;;19.10;34.60;;;;;;491641;240;968;-53
2021/01/16 01:05:18;;;;;;;;;;;19.20;33.30;;;;;;491660;240;1101;-54
2021/01/16 01:07:19;;;;;;;;;;;19.20;34.60;;;;;;491780;240;1173;-53
2021/01/16 01:09:20;;;;;;;;;;;19.20;34.60;;;;;;491687;240;2148;-53
2021/01/16 01:11:22;;;;;;;;;;;19.20;34.50;;;;;;491683;240;998;-54
2021/01/16 01:13:23;;;;;;;;;;;19.20;34.50;;;;;;491818;240;1087;-54
2021/01/16 01:15:24;;;;;;;;;;;19.20;34.50;;;;;;491638;240;1026;-53
2021/01/16 01:17:26;;;;;;;;;;;19.30;34.60;;;;;;491556;240;1079;-54
2021/01/16 01:19:27;;;;;;;;;;;19.30;34.50;;;;;;491660;240;1033;-54
2021/01/16 01:21:28;;;;;;;;;;;19.30;33.20;;;;;;491668;240;946;-54
2021/01/16 01:23:30;;;;;;;;;;;19.30;34.50;;;;;;491656;240;1178;-54
2021/01/16 01:25:31;;;;;;;;;;;19.30;34.40;;;;;;491679;240;1046;-54
2021/01/16 01:27:32;;;;;;;;;;;19.30;34.40;;;;;;491624;240;1045;-54
2021/01/16 01:29:33;;;;;;;;;;;19.30;34.40;;;;;;491721;240;2192;-54
2021/01/16 01:31:35;;;;;;;;;;;19.30;34.40;;;;;;491581;240;988;-54
2021/01/16 01:33:36;;;;;;;;;;;19.40;34.40;;;;;;491696;240;1053;-54
2021/01/16 01:35:37;;;;;;;;;;;19.40;34.40;;;;;;491739;240;1046;-54
2021/01/16 01:37:39;;;;;;;;;;;19.40;34.40;;;;;;491803;240;1181;-54
2021/01/16 01:39:40;;;;;;;;;;;19.40;34.40;;;;;;491654;240;1058;-53
2021/01/16 01:41:41;;;;;;;;;;;19.40;34.30;;;;;;491635;240;1056;-53
2021/01/16 01:43:42;;;;;;;;;;;19.40;34.30;;;;;;491657;240;1054;-54
2021/01/16 01:45:44;;;;;;;;;;;19.40;34.30;;;;;;491600;240;1039;-53
2021/01/16 01:47:45;;;;;;;;;;;19.40;33.00;;;;;;491607;240;1215;-53
2021/01/16 01:49:47;;;;;;;;;;;19.50;34.30;;;;;;491594;240;2154;-54
2021/01/16 01:51:48;;;;;;;;;;;19.50;34.30;;;;;;491630;240;1142;-54
2021/01/16 01:53:49;;;;;;;;;;;19.50;34.30;;;;;;491735;240;1095;-54
2021/01/16 01:55:50;;;;;;;;;;;19.50;34.30;;;;;;491705;240;1061;-54
2021/01/16 01:57:52;;;;;;;;;;;19.50;34.20;;;;;;491693;240;1310;-54
2021/01/16 01:59:53;;;;;;;;;;;19.50;34.20;;;;;;491575;240;1131;-54
2021/01/16 02:01:54;;;;;;;;;;;19.50;34.20;;;;;;491741;240;1220;-54
2021/01/16 02:03:56;;;;;;;;;;;19.60;34.30;;;;;;491667;240;1046;-54
2021/01/16 02:05:57;;;;;;;;;;;19.50;34.20;;;;;;491624;240;1008;-54
2021/01/16 02:07:58;;;;;;;;;;;19.50;34.10;;;;;;491584;238;1301;-53
2021/01/16 02:09:59;;;;;;;;;;;19.60;34.20;;;;;;491600;240;2191;-53
2021/01/16 02:12:01;;;;;;;;;;;19.60;34.20;;;;;;491607;240;1463;-54
2021/01/16 02:14:02;;;;;;;;;;;19.60;34.20;;;;;;491878;240;1018;-54
2021/01/16 02:16:03;;;;;;;;;;;19.60;34.20;;;;;;491619;240;1763;-53
2021/01/16 02:18:04;;;;;;;;;;;19.60;34.20;;;;;;491979;240;1003;-54
2021/01/16 02:20:06;;;;;;;;;;;19.60;34.10;;;;;;491657;240;1245;-53
2021/01/16 02:22:07;;;;;;;;;;;19.60;34.10;;;;;;491631;240;1082;-53
2021/01/16 02:24:08;;;;;;;;;;;19.70;34.20;;;;;;491703;240;1199;-53
2021/01/16 02:26:10;;;;;;;;;;;19.70;34.10;;;;;;491577;240;1231;-53
2021/01/16 02:28:11;;;;;;;;;;;19.70;34.10;;;;;;491800;240;985;-54
2021/01/16 02:30:12;;;;;;;;;;;19.70;34.10;;;;;;491659;240;2141;-53
2021/01/16 02:32:13;;;;;;;;;;;19.70;32.80;;;;;;491651;240;1001;-54
2021/01/16 02:34:15;;;;;;;;;;;19.70;34.10;;;;;;491670;240;1063;-54
2021/01/16 02:36:16;;;;;;;;;;;19.70;34.10;;;;;;491618;240;1024;-53
2021/01/16 02:38:18;;;;;;;;;;;19.70;34.10;;;;;;491647;240;1137;-54
2021/01/16 02:40:19;;;;;;;;;;;19.70;34.10;;;;;;491784;240;1045;-54
2021/01/16 02:42:20;;;;;;;;;;;19.80;34.10;;;;;;491648;240;1070;-54
2021/01/16 02:44:21;;;;;;;;;;;19.70;34.00;;;;;;491687;240;1053;-54
2021/01/16 02:46:23;;;;;;;;;;;19.80;34.00;;;;;;491831;240;1047;-54
2021/01/16 02:48:24;;;;;;;;;;;19.80;34.00;;;;;;491703;240;1063;-53
2021/01/16 02:50:25;;;;;;;;;;;19.80;34.00;;;;;;491616;240;2180;-53
2021/01/16 02:52:27;;;;;;;;;;;19.80;34.00;;;;;;491652;240;978;-54
2021/01/16 02:54:28;;;;;;;;;;;19.80;34.00;;;;;;491588;240;1286;-53
2021/01/16 02:56:29;;;;;;;;;;;19.80;34.00;;;;;;491760;240;975;-54
2021/01/16 02:58:30;;;;;;;;;;;19.80;34.00;;;;;;491691;240;1216;-54
2021/01/16 03:00:32;;;;;;;;;;;19.80;34.00;;;;;;491630;240;1055;-54
2021/01/16 03:02:33;;;;;;;;;;;19.80;33.90;;;;;;491642;240;1092;-54
2021/01/16 03:04:34;;;;;;;;;;;19.90;34.00;;;;;;491665;240;1247;-53
2021/01/16 03:06:35;;;;;;;;;;;19.80;33.90;;;;;;491673;240;1291;-54
2021/01/16 03:08:37;;;;;;;;;;;19.90;34.00;;;;;;491587;240;1334;-54
2021/01/16 03:10:38;;;;;;;;;;;19.90;33.90;;;;;;491633;240;2172;-54
2021/01/16 03:12:39;;;;;;;;;;;19.90;33.90;;;;;;491668;240;1217;-54
2021/01/16 03:14:41;;;;;;;;;;;19.90;34.00;;;;;;491684;240;1158;-54
2021/01/16 03:16:42;;;;;;;;;;;19.90;34.00;;;;;;491610;240;949;-53
2021/01/16 03:18:43;;;;;;;;;;;19.90;33.90;;;;;;491591;240;1046;-54
2021/01/16 03:20:45;;;;;;;;;;;19.90;33.90;;;;;;491639;240;1037;-54
2021/01/16 03:22:49;;;;;;;;;;;19.90;33.90;;;;;;491832;240;987;-54
2021/01/16 03:24:48;;;;;;;;;;;19.90;33.90;;;;;;491743;241;1458;-54
2021/01/16 03:26:49;;;;;;;;;;;19.90;33.90;;;;;;491637;240;1093;-54
2021/01/16 03:28:50;;;;;;;;;;;19.90;33.90;;;;;;491670;240;1128;-54
2021/01/16 03:30:52;;;;;;;;;;;19.90;33.80;;;;;;491721;240;2188;-54
2021/01/16 03:32:53;;;;;;;;;;;19.90;33.80;;;;;;491765;240;1262;-54
2021/01/16 03:34:56;;;;;;;;;;;20.00;33.90;;;;;;491643;240;1020;-54
2021/01/16 03:36:57;;;;;;;;;;;20.00;33.90;;;;;;491592;240;1063;-54
2021/01/16 03:38:59;;;;;;;;;;;20.00;33.80;;;;;;491586;240;1183;-54
2021/01/16 03:41:00;;;;;;;;;;;20.00;33.90;;;;;;491646;240;981;-54
2021/01/16 03:43:02;;;;;;;;;;;20.00;34.10;;;;;;491621;240;1251;-53
2021/01/16 03:45:03;;;;;;;;;;;20.10;33.90;;;;;;491632;240;1001;-54
2021/01/16 03:47:04;;;;;;;;;;;20.10;33.80;;;;;;491749;240;1138;-52
2021/01/16 03:49:05;;;;;;;;;;;20.10;33.80;;;;;;491755;240;1028;-53
2021/01/16 03:51:07;;;;;;;;;;;20.10;33.80;;;;;;491744;240;2179;-53
2021/01/16 03:53:08;;;;;;;;;;;20.00;33.90;;;;;;491526;240;1200;-53
2021/01/16 03:55:09;;;;;;;;;;;20.00;33.90;;;;;;491671;240;1174;-54
2021/01/16 03:57:11;;;;;;;;;;;19.90;34.00;;;;;;491636;240;1299;-54
2021/01/16 03:59:12;;;;;;;;;;;19.90;34.00;;;;;;491720;240;1049;-54
2021/01/16 04:01:13;;;;;;;;;;;19.90;34.10;;;;;;491726;240;963;-53
2021/01/16 04:03:14;;;;;;;;;;;19.80;34.20;;;;;;491660;240;1062;-53
2021/01/16 04:05:16;;;;;;;;;;;19.80;34.30;;;;;;491659;240;967;-53
2021/01/16 04:07:17;;;;;;;;;;;19.70;34.30;;;;;;491678;240;1168;-53
2021/01/16 04:09:18;;;;;;;;;;;19.70;34.40;;;;;;491634;240;1078;-54
2021/01/16 04:11:19;;;;;;;;;;;19.70;34.40;;;;;;491662;240;2129;-54
2021/01/16 04:13:21;;;;;;;;;;;19.60;34.40;;;;;;491731;240;1324;-54
2021/01/16 04:15:22;;;;;;;;;;;19.60;34.50;;;;;;491783;240;1106;-54
2021/01/16 04:17:23;;;;;;;;;;;19.60;34.60;;;;;;491580;240;1241;-54
2021/01/16 04:19:25;;;;;;;;;;;19.50;34.50;;;;;;491680;240;1026;-54
2021/01/16 04:21:26;;;;;;;;;;;19.50;34.60;;;;;;491602;240;1080;-53
2021/01/16 04:23:28;;;;;;;;;;;19.50;34.70;;;;;;492021;240;1243;-54
2021/01/16 04:25:29;;;;;;;;;;;19.40;34.70;;;;;;491809;240;1143;-54
2021/01/16 04:27:30;;;;;;;;;;;19.40;34.70;;;;;;491613;240;1186;-53
2021/01/16 04:29:31;;;;;;;;;;;19.40;34.70;;;;;;491635;240;947;-53
2021/01/16 04:31:33;;;;;;;;;;;19.40;34.80;;;;;;491581;240;2187;-53
2021/01/16 04:33:34;;;;;;;;;;;19.30;34.80;;;;;;491660;240;984;-54
2021/01/16 04:35:36;;;;;;;;;;;19.30;34.90;;;;;;491592;240;1037;-54
2021/01/16 04:37:36;;;;;;;;;;;19.30;34.90;;;;;;491573;240;1352;-54
2021/01/16 04:39:38;;;;;;;;;;;19.30;34.90;;;;;;491788;240;1174;-53
2021/01/16 04:41:39;;;;;;;;;;;19.20;34.90;;;;;;491678;240;1240;-53
2021/01/16 04:43:40;;;;;;;;;;;19.20;35.00;;;;;;491601;240;1019;-53
2021/01/16 04:45:41;;;;;;;;;;;19.20;35.00;;;;;;491660;240;1107;-54
2021/01/16 04:47:43;;;;;;;;;;;19.20;35.10;;;;;;491900;240;1040;-54
2021/01/16 04:49:44;;;;;;;;;;;19.10;35.00;;;;;;491663;240;999;-54
2021/01/16 04:51:45;;;;;;;;;;;19.10;35.10;;;;;;491785;240;2176;-53
2021/01/16 04:53:47;;;;;;;;;;;19.10;35.10;;;;;;491761;240;1052;-54
2021/01/16 04:55:48;;;;;;;;;;;19.10;35.10;;;;;;491739;240;1165;-54
2021/01/16 04:57:49;;;;;;;;;;;19.10;35.10;;;;;;491749;240;1051;-54
2021/01/16 04:59:51;;;;;;;;;;;19.10;35.20;;;;;;491685;240;1101;-53
2021/01/16 05:01:52;;;;;;;;;;;19.10;35.20;;;;;;491842;240;1049;-54
2021/01/16 05:03:53;;;;;;;;;;;19.00;35.20;;;;;;491644;240;960;-53
2021/01/16 05:05:55;;;;;;;;;;;19.00;35.20;;;;;;491591;240;1315;-53
2021/01/16 05:07:56;;;;;;;;;;;19.00;35.20;;;;;;491627;240;1157;-54
2021/01/16 05:09:57;;;;;;;;;;;19.00;35.30;;;;;;491607;238;1261;-54
2021/01/16 05:11:58;;;;;;;;;;;19.00;35.30;;;;;;491861;240;2124;-53
2021/01/16 05:14:00;;;;;;;;;;;18.90;35.20;;;;;;491622;240;1073;-53
2021/01/16 05:16:01;;;;;;;;;;;19.00;35.30;;;;;;491851;240;1044;-53
2021/01/16 05:18:02;;;;;;;;;;;18.90;35.30;;;;;;491665;240;1232;-54
2021/01/16 05:20:04;;;;;;;;;;;18.90;35.20;;;;;;491755;240;1032;-53
2021/01/16 05:22:05;;;;;;;;;;;18.90;35.30;;;;;;491776;240;1014;-54
2021/01/16 05:24:06;;;;;;;;;;;18.90;35.30;;;;;;491724;240;1190;-53
2021/01/16 05:26:07;;;;;;;;;;;18.90;35.30;;;;;;491625;240;1172;-54
2021/01/16 05:28:09;;;;;;;;;;;18.90;35.30;;;;;;491850;240;1187;-53
2021/01/16 05:30:10;;;;;;;;;;;18.90;35.40;;;;;;491601;240;2184;-53
2021/01/16 05:32:11;;;;;;;;;;;18.90;35.40;;;;;;491602;240;1217;-53
2021/01/16 05:34:12;;;;;;;;;;;18.90;35.40;;;;;;491854;240;1194;-54
2021/01/16 05:36:14;;;;;;;;;;;18.80;35.40;;;;;;491930;240;1085;-53
2021/01/16 05:38:15;;;;;;;;;;;18.80;35.40;;;;;;491734;240;1001;-53
2021/01/16 05:40:16;;;;;;;;;;;18.80;35.40;;;;;;491557;240;1173;-53
2021/01/16 05:42:18;;;;;;;;;;;18.80;35.40;;;;;;491592;240;1033;-54
2021/01/16 05:44:19;;;;;;;;;;;18.80;35.40;;;;;;491670;240;1053;-54
2021/01/16 05:46:20;;;;;;;;;;;18.80;35.40;;;;;;491737;240;1077;-54
2021/01/16 05:48:21;;;;;;;;;;;18.80;35.50;;;;;;491648;240;1243;-53
2021/01/16 05:50:23;;;;;;;;;;;18.80;35.50;;;;;;491668;240;2144;-54
2021/01/16 05:52:24;;;;;;;;;;;18.70;35.40;;;;;;491657;240;1220;-54
2021/01/16 05:54:25;;;;;;;;;;;18.80;35.50;;;;;;491698;240;1051;-54
2021/01/16 05:56:27;;;;;;;;;;;18.70;35.40;;;;;;491609;240;1268;-54
2021/01/16 05:58:28;;;;;;;;;;;18.70;35.50;;;;;;491797;240;1111;-53
2021/01/16 06:00:29;;;;;;;;;;;18.70;35.50;;;;;;491607;240;1025;-54
2021/01/16 06:02:31;;;;;;;;;;;18.70;35.50;;;;;;491715;240;1179;-54
2021/01/16 06:04:33;;;;;;;;;;;18.70;35.50;;;;;;491660;240;972;-53
2021/01/16 06:06:35;;;;;;;;;;;18.70;35.50;;;;;;491699;240;1275;-54
2021/01/16 06:08:36;;;;;;;;;;;18.70;35.50;;;;;;491605;240;1146;-54
2021/01/16 06:10:37;;;;;;;;;;;18.70;35.60;;;;;;491665;240;2189;-54
2021/01/16 06:12:38;;;;;;;;;;;18.60;35.50;;;;;;491654;240;1187;-53
2021/01/16 06:14:40;;;;;;;;;;;18.60;35.50;;;;;;491679;240;1047;-54
2021/01/16 06:16:41;;;;;;;;;;;18.70;35.50;;;;;;491750;240;1012;-53
2021/01/16 06:18:43;;;;;;;;;;;18.60;35.50;;;;;;491678;240;1026;-53
2021/01/16 06:20:44;;;;;;;;;;;18.60;35.50;;;;;;491655;240;1199;-54
2021/01/16 06:22:49;;;;;;;;;;;18.60;35.50;;;;;;491701;240;1012;-53
2021/01/16 06:24:47;;;;;;;;;;;18.60;35.60;;;;;;491825;241;2259;-53
2021/01/16 06:26:48;;;;;;;;;;;18.60;35.60;;;;;;491730;240;1128;-54
2021/01/16 06:28:49;;;;;;;;;;;18.60;35.60;;;;;;491603;240;1304;-54
2021/01/16 06:30:51;;;;;;;;;;;18.60;35.60;;;;;;491714;240;2147;-54
2021/01/16 06:32:53;;;;;;;;;;;18.60;35.60;;;;;;491603;240;1219;-53
2021/01/16 06:34:53;;;;;;;;;;;18.60;35.60;;;;;;491672;240;2378;-54
2021/01/16 06:36:55;;;;;;;;;;;18.60;35.60;;;;;;491704;240;1246;-53
2021/01/16 06:38:56;;;;;;;;;;;18.50;35.60;;;;;;491651;240;1157;-54
2021/01/16 06:40:57;;;;;;;;;;;18.60;35.60;;;;;;491600;240;1385;-53
2021/01/16 06:42:58;;;;;;;;;;;18.50;35.60;;;;;;491751;240;1178;-53
2021/01/16 06:45:00;;;;;;;;;;;18.50;35.60;;;;;;491583;240;1225;-53
2021/01/16 06:47:01;;;;;;;;;;;18.60;35.60;;;;;;491808;240;1039;-53
2021/01/16 06:49:02;;;;;;;;;;;18.50;35.60;;;;;;491672;240;1078;-54
2021/01/16 06:51:03;;;;;;;;;;;18.50;35.60;;;;;;491594;240;2136;-53
2021/01/16 06:53:05;;;;;;;;;;;18.50;35.60;;;;;;491583;240;1137;-53
2021/01/16 06:55:06;;;;;;;;;;;18.50;35.60;;;;;;491708;240;1063;-54
2021/01/16 06:57:08;;;;;;;;;;;18.50;34.30;;;;;;491743;240;1401;-53
2021/01/16 06:59:09;;;;;;;;;;;18.50;35.60;;;;;;491631;240;1049;-54
2021/01/16 07:01:10;;;;;;;;;;;18.50;35.60;;;;;;491584;240;968;-54
2021/01/16 07:03:11;;;;;;;;;;;18.50;35.60;;;;;;491587;240;1084;-54
2021/01/16 07:05:13;;;;;;;;;;;18.50;35.60;;;;;;491587;240;1060;-53
2021/01/16 07:07:14;;;;;;;;;;;18.50;35.60;;;;;;491641;240;1036;-53
2021/01/16 07:09:15;;;;;;;;;;;18.50;35.60;;;;;;491563;240;1036;-53
2021/01/16 07:11:17;;;;;;;;;;;18.50;35.60;;;;;;491519;240;2199;-53
2021/01/16 07:13:18;;;;;;;;;;;18.50;35.70;;;;;;491727;240;1074;-54
2021/01/16 07:15:19;;;;;;;;;;;18.50;35.70;;;;;;491670;240;1030;-53
2021/01/16 07:17:21;;;;;;;;;;;18.50;35.60;;;;;;491632;240;1000;-54
2021/01/16 07:19:22;;;;;;;;;;;18.50;35.70;;;;;;491644;240;1064;-54
2021/01/16 07:21:23;;;;;;;;;;;18.50;35.70;;;;;;491617;240;1040;-54
2021/01/16 07:23:25;;;;;;;;;;;18.40;35.60;;;;;;491683;240;1084;-53
2021/01/16 07:25:26;;;;;;;;;;;18.40;35.60;;;;;;491650;240;1305;-53
2021/01/16 07:27:27;;;;;;;;;;;18.40;35.60;;;;;;491662;240;1122;-53
2021/01/16 07:29:28;;;;;;;;;;;18.40;35.60;;;;;;491739;240;1084;-54
2021/01/16 07:31:31;;;;;;;;;;;18.40;35.70;;;;;;491495;240;2188;-53
2021/01/16 07:33:31;;;;;;;;;;;18.40;35.60;;;;;;491581;240;1972;-53
2021/01/16 07:35:32;;;;;;;;;;;18.40;35.70;;;;;;491446;240;1275;-53
2021/01/16 07:37:34;;;;;;;;;;;18.40;35.60;;;;;;491552;240;1189;-54
2021/01/16 07:39:35;;;;;;;;;;;18.40;35.70;;;;;;491714;240;1176;-53
2021/01/16 07:41:36;;;;;;;;;;;18.40;35.70;;;;;;491381;240;1228;-54
2021/01/16 07:43:37;;;;;;;;;;;18.40;35.70;;;;;;491643;240;1142;-53
2021/01/16 07:45:41;;;;;;;;;;;18.40;35.70;;;;;;491642;240;1307;-53
2021/01/16 07:47:40;;;;;;;;;;;18.40;35.70;;;;;;491440;242;2174;-54
2021/01/16 07:49:42;;;;;;;;;;;18.40;35.70;;;;;;491614;240;1062;-53
2021/01/16 07:51:43;;;;;;;;;;;18.40;35.70;;;;;;491965;240;2148;-53
2021/01/16 07:53:44;;;;;;;;;;;18.40;35.70;;;;;;491615;240;1036;-53
2021/01/16 07:55:46;;;;;;;;;;;18.40;35.70;;;;;;491482;240;1053;-54
2021/01/16 07:57:47;;;;;;;;;;;18.30;35.70;;;;;;491587;240;1146;-54
2021/01/16 07:59:49;;;;;;;;;;;18.40;35.70;;;;;;491663;240;1169;-54
2021/01/16 08:01:49;;;;;;;;;;;18.40;35.70;;;;;;491454;242;2189;-54
2021/01/16 08:03:51;;;;;;;;;;;18.40;35.70;;;;;;491598;240;1027;-53
2021/01/16 08:05:52;;;;;;;;;;;18.40;35.70;;;;;;491555;240;1182;-53
2021/01/16 08:07:54;;;;;;;;;;;18.30;35.70;;;;;;491569;240;1020;-53
2021/01/16 08:09:55;;;;;;;;;;;18.30;35.70;;;;;;491548;240;1024;-54
2021/01/16 08:11:56;;;;;;;;;;;18.30;35.70;;;;;;491495;240;2128;-53
2021/01/16 08:13:58;;;;;;;;;;;18.30;35.70;;;;;;491574;240;1169;-53
2021/01/16 08:16:02;;;;;;;;;;;18.30;35.70;;;;;;491455;240;1123;-53
2021/01/16 08:18:00;;;;;;;;;;;18.30;35.70;;;;;;491441;241;1895;-53
2021/01/16 08:20:03;;;;;;;;;;;18.30;35.70;;;;;;491625;240;1043;-53
2021/01/16 08:22:04;;;;;;;;;;;18.30;35.70;;;;;;491462;240;1133;-54
2021/01/16 08:24:06;;;;;;;;;;;18.30;35.70;;;;;;491686;240;1040;-54
2021/01/16 08:26:07;;;;;;;;;;;18.30;35.70;;;;;;491522;240;1059;-53
2021/01/16 08:28:08;;;;;;;;;;;18.30;35.70;;;;;;491528;240;1171;-54
2021/01/16 08:30:09;;;;;;;;;;;18.30;35.60;;;;;;491628;240;1295;-54
2021/01/16 08:32:11;;;;;;;;;;;18.40;35.60;;;;;;491523;240;2185;-53
2021/01/16 08:34:12;;;;;;;;;;;18.40;35.50;;;;;;491808;240;1177;-54
2021/01/16 08:36:13;;;;;;;;;;;18.40;35.50;;;;;;491507;240;1132;-54
2021/01/16 08:38:14;;;;;;;;;;;18.40;35.40;;;;;;491502;240;1158;-54
2021/01/16 08:40:16;;;;;;;;;;;18.40;35.40;;;;;;491504;240;1251;-53
2021/01/16 08:42:17;;;;;;;;;;;18.50;35.40;;;;;;491430;240;1213;-54
2021/01/16 08:44:18;;;;;;;;;;;18.50;35.40;;;;;;491504;240;1324;-54
2021/01/16 08:46:21;;;;;;;;;;;18.50;35.30;;;;;;491489;240;1099;-53
2021/01/16 08:48:21;;;;;;;;;;;18.60;35.30;;;;;;491545;241;2146;-54
2021/01/16 08:50:22;;;;;;;;;;;18.50;35.20;;;;;;491534;240;1086;-54
2021/01/16 08:52:24;;;;;;;;;;;18.60;35.20;;;;;;491520;240;2133;-54
2021/01/16 08:54:25;;;;;;;;;;;18.60;35.20;;;;;;491579;240;1022;-54
2021/01/16 08:56:26;;;;;;;;;;;18.60;35.20;;;;;;491875;240;1032;-54
2021/01/16 08:58:27;;;;;;;;;;;18.70;35.20;;;;;;491527;240;1244;-54
2021/01/16 09:00:29;;;;;;;;;;;18.70;35.20;;;;;;491537;240;1089;-54
2021/01/16 09:02:30;;;;;;;;;;;18.70;35.10;;;;;;491557;240;1224;-54
2021/01/16 09:04:32;;;;;;;;;;;18.70;35.10;;;;;;491651;240;1058;-54
2021/01/16 09:06:33;;;;;;;;;;;18.80;33.80;;;;;;491495;240;996;-53
2021/01/16 09:08:34;;;;;;;;;;;18.80;35.10;;;;;;491583;240;1168;-54
2021/01/16 09:10:35;;;;;;;;;;;18.80;35.00;;;;;;491597;240;1198;-54
2021/01/16 09:12:37;;;;;;;;;;;18.80;35.00;;;;;;491635;240;2128;-54
2021/01/16 09:14:38;;;;;;;;;;;18.80;35.00;;;;;;491626;240;1079;-54
2021/01/16 09:16:42;;;;;;;;;;;18.80;34.90;;;;;;491666;240;1111;-53
2021/01/16 09:18:41;;;;;;;;;;;18.80;34.90;;;;;;491553;241;2279;-54
2021/01/16 09:20:43;;;;;;;;;;;18.90;34.90;;;;;;491485;240;1232;-53
2021/01/16 09:22:43;;;;;;;;;;;18.90;34.90;;;;;;491475;240;1602;-53
2021/01/16 09:24:45;;;;;;;;;;;18.90;34.80;;;;;;491538;240;979;-54
2021/01/16 09:26:46;;;;;;;;;;;18.90;34.80;;;;;;491505;240;1160;-53
2021/01/16 09:28:48;;;;;;;;;;;18.90;34.80;;;;;;491542;240;1197;-53
2021/01/16 09:30:49;;;;;;;;;;;19.00;34.80;;;;;;491521;241;2207;-53
2021/01/16 09:32:50;;;;;;;;;;;19.00;34.80;;;;;;491467;240;2137;-54
2021/01/16 09:34:51;;;;;;;;;;;19.00;34.80;;;;;;491488;240;1262;-53
2021/01/16 09:36:55;;;;;;;;;;;19.00;34.70;;;;;;491411;240;1162;-53
2021/01/16 09:38:54;;;;;;;;;;;19.00;34.70;;;;;;491530;240;2162;-54
2021/01/16 09:40:56;;;;;;;;;;;19.10;34.70;;;;;;491441;240;1163;-54
2021/01/16 09:42:57;;;;;;;;;;;19.10;34.70;;;;;;491460;240;1486;-53
2021/01/16 09:44:59;;;;;;;;;;;19.10;34.60;;;;;;491463;240;1320;-53
2021/01/16 09:46:59;;;;;;;;;;;19.10;34.60;;;;;;491707;240;2558;-54
2021/01/16 09:49:01;;;;;;;;;;;19.10;34.60;;;;;;491755;240;1100;-54
2021/01/16 09:51:02;;;;;;;;;;;19.10;34.60;;;;;;491700;240;1047;-54
2021/01/16 09:53:03;;;;;;;;;;;19.10;34.60;;;;;;491633;240;2136;-54
2021/01/16 09:55:04;;;;;;;;;;;19.20;34.60;;;;;;491626;240;1040;-53
2021/01/16 09:57:06;;;;;;;;;;;19.20;34.60;;;;;;491570;240;1062;-54
2021/01/16 09:59:07;;;;;;;;;;;19.20;34.50;;;;;;491553;240;1172;-54
2021/01/16 10:01:08;;;;;;;;;;;19.20;34.50;;;;;;491573;240;1104;-54
2021/01/16 10:03:10;;;;;;;;;;;19.20;34.50;;;;;;491619;240;1065;-54
2021/01/16 10:05:11;;;;;;;;;;;19.20;34.50;;;;;;491604;240;1012;-53
2021/01/16 10:07:12;;;;;;;;;;;19.30;34.50;;;;;;491568;240;1005;-54
2021/01/16 10:09:13;;;;;;;;;;;19.30;34.50;;;;;;491542;240;999;-53
2021/01/16 10:11:15;;;;;;;;;;;19.30;34.40;;;;;;491612;240;1090;-54
2021/01/16 10:13:16;;;;;;;;;;;19.30;34.40;;;;;;491575;240;2184;-54
2021/01/16 10:15:17;;;;;;;;;;;19.30;34.40;;;;;;491655;240;1080;-53
2021/01/16 10:17:19;;;;;;;;;;;19.30;34.40;;;;;;491560;240;1032;-53
2021/01/16 10:19:21;;;;;;;;;;;19.30;34.30;;;;;;491577;240;987;-54
2021/01/16 10:21:21;;;;;;;;;;;19.40;34.40;;;;;;491438;242;2166;-54
2021/01/16 10:23:22;;;;;;;;;;;19.40;34.40;;;;;;491597;240;1044;-54
2021/01/16 10:25:24;;;;;;;;;;;19.40;34.40;;;;;;491533;240;1075;-54
2021/01/16 10:27:25;;;;;;;;;;;19.40;34.30;;;;;;491638;240;1005;-54
2021/01/16 10:29:26;;;;;;;;;;;19.40;34.30;;;;;;491529;240;1139;-54
2021/01/16 10:31:29;;;;;;;;;;;19.40;34.30;;;;;;491544;240;1085;-53
2021/01/16 10:33:29;;;;;;;;;;;19.40;34.30;;;;;;491509;241;2450;-54
2021/01/16 10:35:31;;;;;;;;;;;19.40;34.30;;;;;;491587;240;1049;-54
2021/01/16 10:37:32;;;;;;;;;;;19.40;34.20;;;;;;491529;240;1335;-54
2021/01/16 10:39:33;;;;;;;;;;;19.50;34.30;;;;;;491673;240;1087;-54
2021/01/16 10:41:34;;;;;;;;;;;19.40;34.20;;;;;;491496;240;1051;-54
2021/01/16 10:43:36;;;;;;;;;;;19.50;34.20;;;;;;491504;240;1332;-54
2021/01/16 10:45:37;;;;;;;;;;;19.50;34.20;;;;;;491603;240;1025;-54
2021/01/16 10:47:39;;;;;;;;;;;19.50;34.20;;;;;;491453;240;1218;-55
2021/01/16 10:49:40;;;;;;;;;;;19.50;34.20;;;;;;491711;240;2220;-54
2021/01/16 10:51:41;;;;;;;;;;;19.50;34.20;;;;;;491697;240;1047;-53
2021/01/16 10:53:43;;;;;;;;;;;19.50;34.20;;;;;;491445;240;2199;-54
2021/01/16 10:55:43;;;;;;;;;;;19.60;34.20;;;;;;491479;241;1995;-54
2021/01/16 10:57:45;;;;;;;;;;;19.60;34.20;;;;;;491560;240;1063;-54
2021/01/16 10:59:46;;;;;;;;;;;19.60;34.20;;;;;;491711;240;1204;-54
2021/01/16 11:01:47;;;;;;;;;;;19.60;34.20;;;;;;491466;240;982;-53
2021/01/16 11:03:48;;;;;;;;;;;19.60;34.20;;;;;;491624;240;1105;-53
2021/01/16 11:05:51;;;;;;;;;;;19.60;34.20;;;;;;491428;240;1158;-54
2021/01/16 11:07:51;;;;;;;;;;;19.60;34.10;;;;;;491435;241;1501;-54
2021/01/16 11:09:52;;;;;;;;;;;19.60;34.10;;;;;;491636;240;1274;-54
2021/01/16 11:11:54;;;;;;;;;;;19.60;34.10;;;;;;491470;240;1043;-53
2021/01/16 11:13:55;;;;;;;;;;;19.60;34.10;;;;;;491495;240;2180;-54
2021/01/16 11:15:56;;;;;;;;;;;19.70;34.10;;;;;;491528;240;1092;-52
2021/01/16 11:17:58;;;;;;;;;;;19.70;34.10;;;;;;491656;240;1071;-54
2021/01/16 11:19:59;;;;;;;;;;;19.70;34.10;;;;;;491602;240;1062;-54
2021/01/16 11:22:00;;;;;;;;;;;19.70;34.10;;;;;;491593;240;962;-53
2021/01/16 11:24:02;;;;;;;;;;;19.70;34.10;;;;;;491630;240;1063;-53
2021/01/16 11:26:03;;;;;;;;;;;19.70;34.10;;;;;;491598;240;1088;-54
2021/01/16 11:28:04;;;;;;;;;;;19.70;34.00;;;;;;491552;238;1332;-54
2021/01/16 11:30:06;;;;;;;;;;;19.80;34.10;;;;;;491594;240;1189;-54
2021/01/16 11:32:07;;;;;;;;;;;19.70;34.00;;;;;;491634;240;2136;-54
2021/01/16 11:34:08;;;;;;;;;;;19.80;34.10;;;;;;491627;240;1034;-54
2021/01/16 11:36:10;;;;;;;;;;;19.70;34.00;;;;;;491596;240;1041;-54
2021/01/16 11:38:11;;;;;;;;;;;19.80;34.00;;;;;;491640;240;1225;-54
2021/01/16 11:40:12;;;;;;;;;;;19.80;34.00;;;;;;491715;240;1028;-54
2021/01/16 11:42:13;;;;;;;;;;;19.80;34.00;;;;;;491580;240;1215;-54
2021/01/16 11:44:15;;;;;;;;;;;19.80;34.00;;;;;;491550;240;1273;-53
2021/01/16 11:46:16;;;;;;;;;;;19.80;34.00;;;;;;491700;240;1002;-53
2021/01/16 11:48:17;;;;;;;;;;;19.80;34.00;;;;;;491508;240;1132;-54
2021/01/16 11:50:18;;;;;;;;;;;19.80;34.00;;;;;;491521;240;1244;-54
2021/01/16 11:52:20;;;;;;;;;;;19.80;33.90;;;;;;491663;240;2150;-53
2021/01/16 11:54:21;;;;;;;;;;;19.80;33.90;;;;;;491700;240;1306;-53
2021/01/16 11:56:22;;;;;;;;;;;19.80;33.90;;;;;;491585;240;1188;-54